Aviation Digital Data Service (ADDS)

Output produced by METARs form (1817 UTC 28 April 2015)
found at http://aviationweather.gov/adds/metars/
 
KPIT 281720Z 2818/2924 30009KT P6SM SCT050 
     FM290000 VRB04KT P6SM SCT250 
     FM291600 32006KT P6SM SCT040 BKN250